createdAt,value
2022-08-02T00:00:30.816Z,16.70
2022-08-02T00:01:30.830Z,16.70
2022-08-02T00:02:30.784Z,16.70
2022-08-02T00:03:30.805Z,16.60
2022-08-02T00:04:30.746Z,16.68
2022-08-02T00:05:30.730Z,16.62
2022-08-02T00:06:30.739Z,16.70
2022-08-02T00:07:30.694Z,16.62
2022-08-02T00:08:30.668Z,16.63
2022-08-02T00:09:30.689Z,16.62
2022-08-02T00:10:30.738Z,16.74
2022-08-02T00:11:30.615Z,16.71
2022-08-02T00:12:30.590Z,16.78
2022-08-02T00:13:30.568Z,16.85
2022-08-02T00:14:30.582Z,16.89
2022-08-02T00:15:30.533Z,16.86
2022-08-02T00:16:37.960Z,16.93
2022-08-02T00:17:30.506Z,16.92
2022-08-02T00:18:30.476Z,16.90
2022-08-02T00:19:30.453Z,16.89
2022-08-02T00:20:30.457Z,16.88
2022-08-02T00:21:30.433Z,17.06
2022-08-02T00:22:30.399Z,17.08
2022-08-02T00:23:30.378Z,16.98
2022-08-02T00:24:31.098Z,17.03
2022-08-02T00:25:30.352Z,17.03
2022-08-02T00:26:30.332Z,17.08
2022-08-02T00:27:30.309Z,17.04
2022-08-02T00:28:30.284Z,17.10
2022-08-02T00:29:30.269Z,17.15
2022-08-02T00:30:30.279Z,17.17
2022-08-02T00:31:30.230Z,17.20
2022-08-02T00:32:30.208Z,17.18
2022-08-02T00:34:27.678Z,17.15
2022-08-02T00:34:33.000Z,17.15
2022-08-02T00:35:30.154Z,17.17
2022-08-02T00:36:30.165Z,17.04
2022-08-02T00:37:30.114Z,17.03
2022-08-02T00:38:30.108Z,17.04
2022-08-02T00:39:34.355Z,17.03
2022-08-02T00:40:30.055Z,16.96
2022-08-02T00:41:30.059Z,17.00
2022-08-02T00:42:30.029Z,16.98
2022-08-02T00:43:30.001Z,16.95
2022-08-02T00:44:29.982Z,16.96
2022-08-02T00:46:02.189Z,16.92
2022-08-02T00:46:29.962Z,16.89
2022-08-02T00:47:29.928Z,16.85
2022-08-02T00:48:29.915Z,16.78
2022-08-02T00:49:29.965Z,16.81
2022-08-02T00:50:29.878Z,16.74
2022-08-02T00:51:29.866Z,16.74
2022-08-02T00:52:29.841Z,16.74
2022-08-02T00:53:29.808Z,16.70
2022-08-02T00:54:29.798Z,16.70
2022-08-02T00:55:31.434Z,16.70
2022-08-02T00:56:29.761Z,16.68
2022-08-02T00:57:29.734Z,16.67
2022-08-02T00:58:29.729Z,16.63
2022-08-02T00:59:29.697Z,16.65
2022-08-02T01:00:29.954Z,16.68
2022-08-02T01:01:29.720Z,16.58
2022-08-02T01:02:29.644Z,16.55
2022-08-02T01:03:29.625Z,16.53
2022-08-02T01:04:30.576Z,16.49
2022-08-02T01:05:29.578Z,16.55
2022-08-02T01:06:29.576Z,16.48
2022-08-02T01:07:29.577Z,16.58
2022-08-02T01:08:31.797Z,16.62
2022-08-02T01:09:29.530Z,16.56
2022-08-02T01:10:29.493Z,16.56
2022-08-02T01:11:29.479Z,16.45
2022-08-02T01:12:29.468Z,16.42
2022-08-02T01:13:29.439Z,16.44
2022-08-02T01:14:29.418Z,16.37
2022-08-02T01:15:36.054Z,16.37
2022-08-02T01:16:29.373Z,16.30
2022-08-02T01:17:29.347Z,16.27
2022-08-02T01:18:29.337Z,16.34
2022-08-02T01:19:29.318Z,16.25
2022-08-02T01:20:29.311Z,16.26
2022-08-02T01:21:29.273Z,16.23
2022-08-02T01:22:58.523Z,16.26
2022-08-02T01:23:29.281Z,16.26
2022-08-02T01:24:29.220Z,16.26
2022-08-02T01:25:29.204Z,16.27
2022-08-02T01:26:29.187Z,16.20
2022-08-02T01:27:29.163Z,16.15
2022-08-02T01:28:29.147Z,16.18
2022-08-02T01:29:29.123Z,16.25
2022-08-02T01:30:29.107Z,16.22
2022-08-02T01:31:29.081Z,16.34
2022-08-02T01:32:29.071Z,16.25
2022-08-02T01:33:29.046Z,16.31
2022-08-02T01:34:29.030Z,16.34
2022-08-02T01:35:29.025Z,16.27
2022-08-02T01:36:28.992Z,16.35
2022-08-02T01:37:28.995Z,16.30
2022-08-02T01:38:28.941Z,16.35
2022-08-02T01:39:32.072Z,16.42
2022-08-02T01:40:28.907Z,16.42
2022-08-02T01:41:28.883Z,16.42
2022-08-02T01:42:28.898Z,16.42
2022-08-02T01:43:28.847Z,16.42
2022-08-02T01:44:28.833Z,16.44
2022-08-02T01:45:28.810Z,16.44
2022-08-02T01:46:28.799Z,16.48
2022-08-02T01:47:28.784Z,16.56
2022-08-02T01:48:28.754Z,16.58
2022-08-02T01:49:28.808Z,16.62
2022-08-02T01:50:28.714Z,16.71
2022-08-02T01:51:28.693Z,16.60
2022-08-02T01:52:28.674Z,16.62
2022-08-02T01:53:28.656Z,16.68
2022-08-02T01:54:28.642Z,16.65
2022-08-02T01:55:35.267Z,16.62
2022-08-02T01:56:28.623Z,16.62
2022-08-02T01:57:28.588Z,16.68
2022-08-02T01:58:28.558Z,16.65
2022-08-02T01:59:28.534Z,16.62
2022-08-02T02:00:28.517Z,16.67
2022-08-02T02:01:28.563Z,16.62
2022-08-02T02:02:31.670Z,16.59
2022-08-02T02:03:28.463Z,16.60
2022-08-02T02:04:28.443Z,16.59
2022-08-02T02:05:28.429Z,16.56
2022-08-02T02:06:28.419Z,16.58
2022-08-02T02:07:28.390Z,16.50
2022-08-02T02:08:28.371Z,16.56
2022-08-02T02:09:28.352Z,16.50
2022-08-02T02:10:28.343Z,16.53
2022-08-02T02:12:05.809Z,16.58
2022-08-02T02:12:28.287Z,16.55
2022-08-02T02:13:33.608Z,16.48
2022-08-02T02:14:28.248Z,16.48
2022-08-02T02:15:28.232Z,16.52
2022-08-02T02:16:28.216Z,16.48
2022-08-02T02:18:11.866Z,16.53
2022-08-02T02:18:28.173Z,16.52
2022-08-02T02:19:28.152Z,16.65
2022-08-02T02:20:28.137Z,16.60
2022-08-02T02:21:28.123Z,16.56
2022-08-02T02:22:28.094Z,16.55
2022-08-02T02:23:28.092Z,16.52
2022-08-02T02:24:28.060Z,16.52
2022-08-02T02:25:36.016Z,16.50
2022-08-02T02:26:31.488Z,16.45
2022-08-02T02:27:28.010Z,16.45
2022-08-02T02:28:27.983Z,16.42
2022-08-02T02:29:27.969Z,16.48
2022-08-02T02:30:27.940Z,16.45
2022-08-02T02:31:27.923Z,16.48
2022-08-02T02:32:27.926Z,16.52
2022-08-02T02:33:29.573Z,16.42
2022-08-02T02:34:27.908Z,16.48
2022-08-02T02:35:27.861Z,16.45
2022-08-02T02:36:27.829Z,16.50
2022-08-02T02:37:27.810Z,16.48
2022-08-02T02:38:27.789Z,16.48
2022-08-02T02:39:27.777Z,16.49
2022-08-02T02:40:27.761Z,16.48
2022-08-02T02:41:27.726Z,16.48
2022-08-02T02:42:27.707Z,16.58
2022-08-02T02:43:27.688Z,16.65
2022-08-02T02:44:27.699Z,16.59
2022-08-02T02:45:27.653Z,16.59
2022-08-02T02:46:27.634Z,16.56
2022-08-02T02:47:40.836Z,16.59
2022-08-02T02:48:27.597Z,16.59
2022-08-02T02:49:27.690Z,16.58
2022-08-02T02:50:27.559Z,16.55
2022-08-02T02:51:27.546Z,16.53
2022-08-02T02:52:27.520Z,16.55
2022-08-02T02:53:27.508Z,16.52
2022-08-02T02:54:34.515Z,16.60
2022-08-02T02:55:27.460Z,16.53
2022-08-02T02:56:27.440Z,16.48
2022-08-02T02:57:27.429Z,16.44
2022-08-02T02:58:28.803Z,16.49
2022-08-02T02:59:27.414Z,16.45
2022-08-02T03:00:27.393Z,16.38
2022-08-02T03:01:55.473Z,16.40
2022-08-02T03:02:27.331Z,16.34
2022-08-02T03:03:27.309Z,16.48
2022-08-02T03:04:27.296Z,16.42
2022-08-02T03:05:27.323Z,16.31
2022-08-02T03:06:27.249Z,16.34
2022-08-02T03:07:27.245Z,16.34
2022-08-02T03:08:27.217Z,16.27
2022-08-02T03:09:27.203Z,16.37
2022-08-02T03:10:27.176Z,16.34
2022-08-02T03:11:27.152Z,16.31
2022-08-02T03:12:31.733Z,16.33
2022-08-02T03:13:33.026Z,16.34
2022-08-02T03:14:27.137Z,16.31
2022-08-02T03:15:27.101Z,16.33
2022-08-02T03:16:27.058Z,16.41
2022-08-02T03:17:27.036Z,16.38
2022-08-02T03:18:27.037Z,16.31
2022-08-02T03:19:33.191Z,16.42
2022-08-02T03:20:26.986Z,16.27
2022-08-02T03:21:26.961Z,16.34
2022-08-02T03:22:26.958Z,16.30
2022-08-02T03:23:26.922Z,16.35
2022-08-02T03:24:28.254Z,16.35
2022-08-02T03:25:26.883Z,16.38
2022-08-02T03:26:26.862Z,16.33
2022-08-02T03:27:26.876Z,16.34
2022-08-02T03:28:26.846Z,16.30
2022-08-02T03:29:28.071Z,16.37
2022-08-02T03:30:26.806Z,16.45
2022-08-02T03:31:26.767Z,16.37
2022-08-02T03:32:26.753Z,16.38
2022-08-02T03:33:26.732Z,16.26
2022-08-02T03:34:26.709Z,16.34
2022-08-02T03:35:26.687Z,16.37
2022-08-02T03:36:26.687Z,16.27
2022-08-02T03:37:26.651Z,16.33
2022-08-02T03:38:29.216Z,16.31
2022-08-02T03:39:26.614Z,16.23
2022-08-02T03:40:26.610Z,16.23
2022-08-02T03:41:26.594Z,16.23
2022-08-02T03:42:26.553Z,16.25
2022-08-02T03:43:28.808Z,16.18
2022-08-02T03:44:26.515Z,16.20
2022-08-02T03:45:26.500Z,16.11
2022-08-02T03:46:26.489Z,16.06
2022-08-02T03:47:26.455Z,16.16
2022-08-02T03:48:34.753Z,16.22
2022-08-02T03:49:26.469Z,16.20
2022-08-02T03:50:26.401Z,16.26
2022-08-02T03:51:26.382Z,16.20
2022-08-02T03:52:26.357Z,16.23
2022-08-02T03:53:26.338Z,16.23
2022-08-02T03:54:32.917Z,16.14
2022-08-02T03:55:26.296Z,16.23
2022-08-02T03:56:26.289Z,16.15
2022-08-02T03:57:26.261Z,16.07
2022-08-02T03:58:26.244Z,16.15
2022-08-02T03:59:26.222Z,16.14
2022-08-02T04:00:26.203Z,16.12
2022-08-02T04:01:26.273Z,16.09
2022-08-02T04:02:26.166Z,16.07
2022-08-02T04:03:26.169Z,15.97
2022-08-02T04:04:26.124Z,15.99
2022-08-02T04:05:26.106Z,15.99
2022-08-02T04:06:27.148Z,15.88
2022-08-02T04:08:34.575Z,15.86
2022-08-02T04:08:36.412Z,15.89
2022-08-02T04:09:26.024Z,15.85
2022-08-02T04:10:26.005Z,15.88
2022-08-02T04:11:25.990Z,15.82
2022-08-02T04:12:25.966Z,15.78
2022-08-02T04:13:31.258Z,15.82
2022-08-02T04:14:25.924Z,15.88
2022-08-02T04:15:25.914Z,15.79
2022-08-02T04:16:25.895Z,15.79
2022-08-02T04:17:25.864Z,15.86
2022-08-02T04:18:25.848Z,15.92
2022-08-02T04:19:25.829Z,15.86
2022-08-02T04:20:25.807Z,15.88
2022-08-02T04:21:25.787Z,16.01
2022-08-02T04:22:25.766Z,15.99
2022-08-02T04:23:25.752Z,16.01
2022-08-02T04:24:25.826Z,16.00
2022-08-02T04:25:38.081Z,16.01
2022-08-02T04:26:28.211Z,16.06
2022-08-02T04:28:15.692Z,16.11
2022-08-02T04:28:27.604Z,16.03
2022-08-02T04:29:25.642Z,16.07
2022-08-02T04:30:25.614Z,16.06
2022-08-02T04:31:25.598Z,16.14
2022-08-02T04:32:25.588Z,16.09
2022-08-02T04:33:25.550Z,16.01
2022-08-02T04:34:25.559Z,16.06
2022-08-02T04:35:25.556Z,16.09
2022-08-02T04:36:30.819Z,16.09
2022-08-02T04:37:25.493Z,16.12
2022-08-02T04:38:25.453Z,16.11
2022-08-02T04:39:25.431Z,16.09
2022-08-02T04:40:25.411Z,16.03
2022-08-02T04:41:25.392Z,15.97
2022-08-02T04:42:25.370Z,15.86
2022-08-02T04:43:25.350Z,15.93
2022-08-02T04:44:25.342Z,15.94
2022-08-02T04:45:25.314Z,15.89
2022-08-02T04:46:25.316Z,15.92
2022-08-02T04:48:02.531Z,15.97
2022-08-02T04:48:25.257Z,16.01
2022-08-02T04:49:25.292Z,15.89
2022-08-02T04:50:25.217Z,15.89
2022-08-02T04:51:38.122Z,15.88
2022-08-02T04:52:25.174Z,15.93
2022-08-02T04:53:25.156Z,15.93
2022-08-02T04:54:25.160Z,15.89
2022-08-02T04:55:25.121Z,15.86
2022-08-02T04:56:25.097Z,15.85
2022-08-02T04:57:25.083Z,15.88
2022-08-02T04:58:39.853Z,15.79
2022-08-02T04:59:25.055Z,15.88
2022-08-02T05:00:25.056Z,15.78
2022-08-02T05:01:24.998Z,15.88
2022-08-02T05:02:24.978Z,15.85
2022-08-02T05:03:24.961Z,15.86
2022-08-02T05:04:24.946Z,15.88
2022-08-02T05:05:24.926Z,15.99
2022-08-02T05:06:24.899Z,16.03
2022-08-02T05:07:24.884Z,16.03
2022-08-02T05:08:24.883Z,16.07
2022-08-02T05:09:24.842Z,16.16
2022-08-02T05:10:24.828Z,16.20
2022-08-02T05:11:34.458Z,16.23
2022-08-02T05:12:24.782Z,16.34
2022-08-02T05:13:24.763Z,16.31
2022-08-02T05:14:24.753Z,16.40
2022-08-02T05:15:24.742Z,16.44
2022-08-02T05:16:24.707Z,16.42
2022-08-02T05:17:24.685Z,16.53
2022-08-02T05:18:24.666Z,16.58
2022-08-02T05:19:24.649Z,16.68
2022-08-02T05:20:24.628Z,16.73
2022-08-02T05:21:24.614Z,16.85
2022-08-02T05:22:24.590Z,16.86
2022-08-02T05:23:24.573Z,16.95
2022-08-02T05:24:24.559Z,17.04
2022-08-02T05:25:24.530Z,17.04
2022-08-02T05:26:24.521Z,17.08
2022-08-02T05:27:24.489Z,17.08
2022-08-02T05:28:24.475Z,17.13
2022-08-02T05:29:24.454Z,17.23
2022-08-02T05:30:24.442Z,17.25
2022-08-02T05:31:24.420Z,17.26
2022-08-02T05:32:25.869Z,17.32
2022-08-02T05:33:24.383Z,17.35
2022-08-02T05:34:24.365Z,17.38
2022-08-02T05:35:24.361Z,17.28
2022-08-02T05:36:24.333Z,17.26
2022-08-02T05:37:24.322Z,17.32
2022-08-02T05:38:25.986Z,17.44
2022-08-02T05:39:24.268Z,17.41
2022-08-02T05:40:25.556Z,17.40
2022-08-02T05:41:24.230Z,17.53
2022-08-02T05:42:24.212Z,17.48
2022-08-02T05:43:24.299Z,17.54
2022-08-02T05:44:24.175Z,17.57
2022-08-02T05:45:24.158Z,17.62
2022-08-02T05:46:24.156Z,17.64
2022-08-02T05:47:24.120Z,17.59
2022-08-02T05:48:27.879Z,17.63
2022-08-02T05:49:24.184Z,17.69
2022-08-02T05:50:24.421Z,17.82
2022-08-02T05:51:24.045Z,17.76
2022-08-02T05:52:24.029Z,17.78
2022-08-02T05:53:24.010Z,17.88
2022-08-02T05:54:23.994Z,17.92
2022-08-02T05:55:23.990Z,17.94
2022-08-02T05:56:24.301Z,17.87
2022-08-02T05:57:23.942Z,17.95
2022-08-02T05:58:23.919Z,17.94
2022-08-02T05:59:23.906Z,18.00
2022-08-02T06:00:23.887Z,18.12
2022-08-02T06:01:23.925Z,18.28
2022-08-02T06:02:26.340Z,18.25
2022-08-02T06:03:23.859Z,18.31
2022-08-02T06:04:23.813Z,18.44
2022-08-02T06:05:23.798Z,18.40
2022-08-02T06:06:23.782Z,18.39
2022-08-02T06:07:23.773Z,18.42
2022-08-02T06:08:23.751Z,18.42
2022-08-02T06:09:27.186Z,18.54
2022-08-02T06:10:23.705Z,18.64
2022-08-02T06:11:23.691Z,18.64
2022-08-02T06:12:23.675Z,18.73
2022-08-02T06:13:23.667Z,18.83
2022-08-02T06:14:23.640Z,18.92
2022-08-02T06:15:23.624Z,18.92
2022-08-02T06:16:32.060Z,19.11
2022-08-02T06:17:23.592Z,19.17
2022-08-02T06:18:27.769Z,19.20
2022-08-02T06:19:23.556Z,19.29
2022-08-02T06:20:23.533Z,19.38
2022-08-02T06:22:31.691Z,19.39
2022-08-02T06:22:32.906Z,19.53
2022-08-02T06:23:23.555Z,19.55
2022-08-02T06:24:23.497Z,19.54
2022-08-02T06:25:49.861Z,19.76
2022-08-02T06:26:23.435Z,19.75
2022-08-02T06:27:23.423Z,19.98
2022-08-02T06:28:23.427Z,20.16
2022-08-02T06:29:23.574Z,20.31
2022-08-02T06:30:23.379Z,20.33
2022-08-02T06:31:23.372Z,20.54
2022-08-02T06:32:23.361Z,20.76
2022-08-02T06:33:23.321Z,20.90
2022-08-02T06:34:23.301Z,21.02
2022-08-02T06:35:23.299Z,21.26
2022-08-02T06:36:23.286Z,21.30
2022-08-02T06:37:23.264Z,21.48
2022-08-02T06:38:23.241Z,21.48
2022-08-02T06:39:23.238Z,21.63
2022-08-02T06:40:23.215Z,21.82
2022-08-02T06:41:23.232Z,21.98
2022-08-02T06:42:26.920Z,22.01
2022-08-02T06:43:23.164Z,22.06
2022-08-02T06:45:23.138Z,22.17
2022-08-02T06:47:08.336Z,22.20
2022-08-02T06:47:23.103Z,22.37
2022-08-02T06:48:23.096Z,22.44
2022-08-02T06:49:23.090Z,22.50
2022-08-02T06:50:23.056Z,22.47
2022-08-02T06:51:23.048Z,22.60
2022-08-02T06:52:27.345Z,22.80
2022-08-02T06:53:23.010Z,22.67
2022-08-02T06:54:22.999Z,22.62
2022-08-02T06:55:22.985Z,22.62
2022-08-02T06:56:22.972Z,22.64
2022-08-02T06:57:22.966Z,22.57
2022-08-02T06:58:22.958Z,22.59
2022-08-02T06:59:22.934Z,22.65
2022-08-02T07:00:22.912Z,22.71
2022-08-02T07:01:22.965Z,22.59
2022-08-02T07:02:22.897Z,22.75
2022-08-02T07:03:22.869Z,22.74
2022-08-02T07:04:22.855Z,22.78
2022-08-02T07:05:22.847Z,22.74
2022-08-02T07:06:22.879Z,22.80
2022-08-02T07:07:22.829Z,22.82
2022-08-02T07:08:22.802Z,22.78
2022-08-02T07:09:22.803Z,22.78
2022-08-02T07:10:22.780Z,22.72
2022-08-02T07:11:22.759Z,22.92
2022-08-02T07:12:22.745Z,23.07
2022-08-02T07:13:22.740Z,23.08
2022-08-02T07:14:22.714Z,23.22
2022-08-02T07:15:22.702Z,23.42
2022-08-02T07:16:22.685Z,23.61
2022-08-02T07:17:22.677Z,23.70
2022-08-02T07:18:22.659Z,23.95
2022-08-02T07:19:23.901Z,24.02
2022-08-02T07:20:22.630Z,24.29
2022-08-02T07:21:57.042Z,24.35
2022-08-02T07:22:22.601Z,24.47
2022-08-02T07:23:22.605Z,24.79
2022-08-02T07:24:22.568Z,25.09
2022-08-02T07:25:22.568Z,25.19
2022-08-02T07:26:22.553Z,25.32
2022-08-02T07:27:22.540Z,25.57
2022-08-02T07:28:24.799Z,25.89
2022-08-02T07:29:22.523Z,26.05
2022-08-02T07:30:22.490Z,26.35
2022-08-02T07:31:22.482Z,26.54
2022-08-02T07:32:22.468Z,27.11
2022-08-02T07:33:38.754Z,27.59
2022-08-02T07:34:22.436Z,28.16
2022-08-02T07:35:22.425Z,28.41
2022-08-02T07:36:23.021Z,28.77
2022-08-02T07:37:53.013Z,28.73
2022-08-02T07:38:22.386Z,28.62
2022-08-02T07:39:22.373Z,28.35
2022-08-02T07:40:22.380Z,28.09
2022-08-02T07:41:22.366Z,28.43
2022-08-02T07:42:22.333Z,28.53
2022-08-02T07:43:22.335Z,28.28
2022-08-02T07:44:22.310Z,28.44
2022-08-02T07:45:22.296Z,28.10
2022-08-02T07:46:22.391Z,28.44
2022-08-02T07:47:22.281Z,28.69
2022-08-02T07:48:22.312Z,28.93
2022-08-02T07:49:22.302Z,29.19
2022-08-02T07:50:22.308Z,28.38
2022-08-02T07:51:22.235Z,27.59
2022-08-02T07:52:22.216Z,26.80
2022-08-02T07:53:50.064Z,26.06
2022-08-02T07:54:22.198Z,25.68
2022-08-02T07:55:22.189Z,25.98
2022-08-02T07:56:22.174Z,26.68
2022-08-02T07:57:22.171Z,27.19
2022-08-02T07:58:22.185Z,27.76
2022-08-02T07:59:22.145Z,28.09
2022-08-02T08:00:22.160Z,28.23
2022-08-02T08:01:22.225Z,28.29
2022-08-02T08:02:22.108Z,27.74
2022-08-02T08:03:22.098Z,27.85
2022-08-02T08:04:22.094Z,28.50
2022-08-02T08:05:22.077Z,28.72
2022-08-02T08:06:29.036Z,29.26
2022-08-02T08:07:22.054Z,29.68
2022-08-02T08:08:22.043Z,30.21
2022-08-02T08:09:22.032Z,30.46
2022-08-02T08:10:22.064Z,30.36
2022-08-02T08:11:22.011Z,29.74
2022-08-02T08:12:22.008Z,29.59
2022-08-02T08:13:22.010Z,29.10
2022-08-02T08:14:22.007Z,28.84
2022-08-02T08:15:21.984Z,29.07
2022-08-02T08:16:21.966Z,29.43
2022-08-02T08:17:21.948Z,29.66
2022-08-02T08:18:21.952Z,30.14
2022-08-02T08:19:21.934Z,30.34
2022-08-02T08:20:21.933Z,30.40
2022-08-02T08:21:21.910Z,30.49
2022-08-02T08:22:21.896Z,30.18
2022-08-02T08:23:21.887Z,30.24
2022-08-02T08:24:21.877Z,30.45
2022-08-02T08:25:21.869Z,29.96
2022-08-02T08:26:21.857Z,30.07
2022-08-02T08:27:21.850Z,30.53
2022-08-02T08:28:21.834Z,30.81
2022-08-02T08:29:21.839Z,30.80
2022-08-02T08:30:21.815Z,30.90
2022-08-02T08:31:21.806Z,30.75
2022-08-02T08:32:21.940Z,30.67
2022-08-02T08:33:21.792Z,30.69
2022-08-02T08:34:21.778Z,30.30
2022-08-02T08:35:21.768Z,30.46
2022-08-02T08:36:21.771Z,30.33
2022-08-02T08:37:21.754Z,30.59
2022-08-02T08:38:21.733Z,30.78
2022-08-02T08:39:21.731Z,30.00
2022-08-02T08:40:21.789Z,30.00
2022-08-02T08:41:21.712Z,30.18
2022-08-02T08:42:21.696Z,30.23
2022-08-02T08:43:21.697Z,30.24
2022-08-02T08:44:21.683Z,30.71
2022-08-02T08:45:21.673Z,31.01
2022-08-02T08:46:21.709Z,31.01
2022-08-02T08:47:21.673Z,31.04
2022-08-02T08:48:25.657Z,30.61
2022-08-02T08:49:21.686Z,30.62
2022-08-02T08:50:25.299Z,30.59
2022-08-02T08:51:21.612Z,30.96
2022-08-02T08:52:21.612Z,31.28
2022-08-02T08:53:21.593Z,31.38
2022-08-02T08:54:21.584Z,31.70
2022-08-02T08:55:21.593Z,31.60
2022-08-02T08:56:21.581Z,31.18
2022-08-02T08:57:21.556Z,31.21
2022-08-02T08:58:21.553Z,30.86
2022-08-02T08:59:21.540Z,30.81
2022-08-02T09:00:21.529Z,30.29
2022-08-02T09:01:21.595Z,30.62
2022-08-02T09:02:26.020Z,30.27
2022-08-02T09:03:21.505Z,30.57
2022-08-02T09:04:21.510Z,31.01
2022-08-02T09:05:21.487Z,30.83
2022-08-02T09:06:21.485Z,30.94
2022-08-02T09:07:21.464Z,30.93
2022-08-02T09:08:21.458Z,31.20
2022-08-02T09:09:21.442Z,31.65
2022-08-02T09:10:21.438Z,31.73
2022-08-02T09:11:21.446Z,31.70
2022-08-02T09:12:21.429Z,31.48
2022-08-02T09:13:38.625Z,31.50
2022-08-02T09:14:21.401Z,31.49
2022-08-02T09:15:21.393Z,31.08
2022-08-02T09:16:21.394Z,31.55
2022-08-02T09:17:21.921Z,31.91
2022-08-02T09:18:21.371Z,31.99
2022-08-02T09:19:21.377Z,32.00
2022-08-02T09:20:21.345Z,31.82
2022-08-02T09:21:21.340Z,31.88
2022-08-02T09:22:21.333Z,32.11
2022-08-02T09:23:21.332Z,32.32
2022-08-02T09:24:21.319Z,32.27
2022-08-02T09:25:21.301Z,32.10
2022-08-02T09:26:21.296Z,32.44
2022-08-02T09:27:21.288Z,32.81
2022-08-02T09:28:21.291Z,32.84
2022-08-02T09:29:21.520Z,32.76
2022-08-02T09:30:21.270Z,32.84
2022-08-02T09:31:21.264Z,32.61
2022-08-02T09:32:21.239Z,32.14
2022-08-02T09:33:21.248Z,32.15
2022-08-02T09:34:21.221Z,32.36
2022-08-02T09:35:21.217Z,32.36
2022-08-02T09:36:21.206Z,31.68
2022-08-02T09:37:21.193Z,31.54
2022-08-02T09:38:21.207Z,31.27
2022-08-02T09:39:21.224Z,31.53
2022-08-02T09:40:21.178Z,31.82
2022-08-02T09:41:21.170Z,31.70
2022-08-02T09:42:21.184Z,31.76
2022-08-02T09:43:21.143Z,31.55
2022-08-02T09:44:21.137Z,31.49
2022-08-02T09:45:21.130Z,31.68
2022-08-02T09:46:24.318Z,31.43
2022-08-02T09:47:21.111Z,31.39
2022-08-02T09:48:21.111Z,31.85
2022-08-02T09:49:21.184Z,31.99
2022-08-02T09:50:21.089Z,32.07
2022-08-02T09:51:21.077Z,32.25
2022-08-02T09:52:21.077Z,32.37
2022-08-02T09:53:21.071Z,32.39
2022-08-02T09:54:21.059Z,32.95
2022-08-02T09:55:21.043Z,32.95
2022-08-02T09:56:29.510Z,32.95
2022-08-02T09:57:21.037Z,32.67
2022-08-02T09:58:21.025Z,32.36
2022-08-02T09:59:21.017Z,30.91
2022-08-02T10:00:37.097Z,30.78
2022-08-02T10:01:21.014Z,30.83
2022-08-02T10:02:22.918Z,30.29
2022-08-02T10:03:22.684Z,29.89
2022-08-02T10:04:22.522Z,29.49
2022-08-02T10:05:20.962Z,29.77
2022-08-02T10:06:20.956Z,30.26
2022-08-02T10:07:21.634Z,29.93
2022-08-02T10:08:20.937Z,29.87
2022-08-02T10:09:20.940Z,30.18
2022-08-02T10:10:20.922Z,30.49
2022-08-02T10:11:20.910Z,30.83
2022-08-02T10:12:20.904Z,30.65
2022-08-02T10:13:21.641Z,30.91
2022-08-02T10:14:20.887Z,31.15
2022-08-02T10:15:24.531Z,31.58
2022-08-02T10:16:20.873Z,32.17
2022-08-02T10:17:20.866Z,32.61
2022-08-02T10:18:37.514Z,32.79
2022-08-02T10:20:02.003Z,32.69
2022-08-02T10:20:20.859Z,32.89
2022-08-02T10:21:20.829Z,32.64
2022-08-02T10:22:20.820Z,32.54
2022-08-02T10:23:20.824Z,31.99
2022-08-02T10:24:20.806Z,32.15
2022-08-02T10:25:20.807Z,32.02
2022-08-02T10:26:20.791Z,32.11
2022-08-02T10:27:20.981Z,32.48
2022-08-02T10:28:20.779Z,32.35
2022-08-02T10:29:20.813Z,32.37
2022-08-02T10:30:20.768Z,32.14
2022-08-02T10:31:20.759Z,31.62
2022-08-02T10:32:20.752Z,31.50
2022-08-02T10:33:20.744Z,31.87
2022-08-02T10:34:20.736Z,31.68
2022-08-02T10:35:25.366Z,32.02
2022-08-02T10:36:20.736Z,32.15
2022-08-02T10:37:20.713Z,31.96
2022-08-02T10:38:20.721Z,31.53
2022-08-02T10:39:20.707Z,31.18
2022-08-02T10:40:20.704Z,31.21
2022-08-02T10:41:20.691Z,31.42
2022-08-02T10:42:20.688Z,31.53
2022-08-02T10:43:20.706Z,31.57
2022-08-02T10:44:25.037Z,31.99
2022-08-02T10:45:20.667Z,32.21
2022-08-02T10:46:20.664Z,32.37
2022-08-02T10:47:20.702Z,32.55
2022-08-02T10:48:20.656Z,32.74
2022-08-02T10:49:49.941Z,32.74
2022-08-02T10:50:20.638Z,32.69
2022-08-02T10:51:24.498Z,32.70
2022-08-02T10:52:20.630Z,32.59
2022-08-02T10:53:20.629Z,32.20
2022-08-02T10:54:20.710Z,31.43
2022-08-02T10:55:22.310Z,30.62
2022-08-02T10:56:20.621Z,30.61
2022-08-02T10:57:20.606Z,30.83
2022-08-02T10:58:20.599Z,31.15
2022-08-02T10:59:20.596Z,31.53
2022-08-02T11:00:20.591Z,31.73
2022-08-02T11:01:20.638Z,32.36
2022-08-02T11:02:20.598Z,32.58
2022-08-02T11:03:20.578Z,32.67
2022-08-02T11:04:20.571Z,32.36
2022-08-02T11:05:20.569Z,32.00
2022-08-02T11:06:25.815Z,32.13
2022-08-02T11:07:20.562Z,32.10
2022-08-02T11:08:20.559Z,32.15
2022-08-02T11:09:20.550Z,32.03
2022-08-02T11:10:20.551Z,31.84
2022-08-02T11:11:20.546Z,31.99
2022-08-02T11:12:20.540Z,32.22
2022-08-02T11:13:20.546Z,32.20
2022-08-02T11:14:20.535Z,32.39
2022-08-02T11:15:20.538Z,32.52
2022-08-02T11:16:20.528Z,32.76
2022-08-02T11:17:20.524Z,33.03
2022-08-02T11:18:20.529Z,32.85
2022-08-02T11:19:20.513Z,32.73
2022-08-02T11:20:20.517Z,32.71
2022-08-02T11:21:20.515Z,32.66
2022-08-02T11:22:25.543Z,32.76
2022-08-02T11:23:20.509Z,32.49
2022-08-02T11:24:20.503Z,32.17
2022-08-02T11:25:20.509Z,32.03
2022-08-02T11:26:20.504Z,32.32
2022-08-02T11:27:21.985Z,32.40
2022-08-02T11:28:24.594Z,32.52
2022-08-02T11:29:20.502Z,32.15
2022-08-02T11:30:20.496Z,31.84
2022-08-02T11:31:20.494Z,31.58
2022-08-02T11:32:20.498Z,31.61
2022-08-02T11:33:20.496Z,31.57
2022-08-02T11:34:36.756Z,31.31
2022-08-02T11:35:20.499Z,31.42
2022-08-02T11:36:20.486Z,31.38
2022-08-02T11:37:20.488Z,31.36
2022-08-02T11:38:20.490Z,31.15
2022-08-02T11:39:20.486Z,31.26
2022-08-02T11:40:20.495Z,31.46
2022-08-02T11:41:45.982Z,31.49
2022-08-02T11:42:20.486Z,31.67
2022-08-02T11:43:20.500Z,31.72
2022-08-02T11:44:22.067Z,31.98
2022-08-02T11:45:21.496Z,32.00
2022-08-02T11:46:20.481Z,32.17
2022-08-02T11:47:20.472Z,32.25
2022-08-02T11:48:20.512Z,32.52
2022-08-02T11:49:20.528Z,32.49
2022-08-02T11:50:20.479Z,32.73
2022-08-02T11:51:20.476Z,32.81
2022-08-02T11:52:20.509Z,32.99
2022-08-02T11:53:20.468Z,32.61
2022-08-02T11:54:20.475Z,32.70
2022-08-02T11:55:20.476Z,32.64
2022-08-02T11:56:25.012Z,32.84
2022-08-02T11:57:21.161Z,32.74
2022-08-02T11:58:20.475Z,32.58
2022-08-02T11:59:20.474Z,32.42
2022-08-02T12:00:20.471Z,32.52
2022-08-02T12:01:20.478Z,32.67
2022-08-02T12:02:20.473Z,32.71
2022-08-02T12:03:20.518Z,33.04
2022-08-02T12:04:22.850Z,33.08
2022-08-02T12:05:20.476Z,33.15
2022-08-02T12:06:20.475Z,32.88
2022-08-02T12:07:20.487Z,33.03
2022-08-02T12:08:22.276Z,32.88
2022-08-02T12:09:20.496Z,32.79
2022-08-02T12:10:20.474Z,32.73
2022-08-02T12:11:20.503Z,32.74
2022-08-02T12:12:20.501Z,32.70
2022-08-02T12:13:20.483Z,32.77
2022-08-02T12:14:20.480Z,32.67
2022-08-02T12:15:20.486Z,32.67
2022-08-02T12:16:20.488Z,32.62
2022-08-02T12:17:20.488Z,32.48
2022-08-02T12:18:20.496Z,32.22
2022-08-02T12:19:20.492Z,32.24
2022-08-02T12:20:20.492Z,32.24
2022-08-02T12:21:20.481Z,32.48
2022-08-02T12:22:24.271Z,32.49
2022-08-02T12:23:20.497Z,32.71
2022-08-02T12:24:20.486Z,32.91
2022-08-02T12:25:34.036Z,33.08
2022-08-02T12:26:20.501Z,33.07
2022-08-02T12:27:20.487Z,33.30
2022-08-02T12:28:20.513Z,33.19
2022-08-02T12:29:58.594Z,33.06
2022-08-02T12:30:27.924Z,33.19
2022-08-02T12:31:20.491Z,32.80
2022-08-02T12:32:20.500Z,32.59
2022-08-02T12:33:20.492Z,32.61
2022-08-02T12:34:20.492Z,32.29
2022-08-02T12:35:26.091Z,32.03
2022-08-02T12:36:20.496Z,31.82
2022-08-02T12:37:20.501Z,31.76
2022-08-02T12:38:20.498Z,31.43
2022-08-02T12:39:20.495Z,31.39
2022-08-02T12:40:20.825Z,31.27
2022-08-02T12:41:30.278Z,31.15
2022-08-02T12:42:20.499Z,31.45
2022-08-02T12:43:20.498Z,31.13
2022-08-02T12:44:20.483Z,30.80
2022-08-02T12:45:20.492Z,31.13
2022-08-02T12:46:20.482Z,31.38
2022-08-02T12:47:21.535Z,31.57
2022-08-02T12:48:20.482Z,31.77
2022-08-02T12:49:20.518Z,32.00
2022-08-02T12:50:20.477Z,32.11
2022-08-02T12:51:20.487Z,31.99
2022-08-02T12:52:20.475Z,31.72
2022-08-02T12:53:20.477Z,31.62